sensor_id;sensor_type;location;lat;lon;timestamp;P1;durP1;ratioP1;P2;durP2;ratioP2
15831;SDS011;8016;49.928;9.372;2022-12-18T00:00:47;11.33;;;6.80;;
15831;SDS011;8016;49.928;9.372;2022-12-18T00:03:14;9.20;;;6.27;;
15831;SDS011;8016;49.928;9.372;2022-12-18T00:05:49;10.03;;;6.00;;
15831;SDS011;8016;49.928;9.372;2022-12-18T00:08:16;9.10;;;6.20;;
15831;SDS011;8016;49.928;9.372;2022-12-18T00:10:42;12.57;;;6.20;;
15831;SDS011;8016;49.928;9.372;2022-12-18T00:13:08;11.27;;;7.07;;
15831;SDS011;8016;49.928;9.372;2022-12-18T00:15:34;12.43;;;7.53;;
15831;SDS011;8016;49.928;9.372;2022-12-18T00:18:00;10.20;;;7.07;;
15831;SDS011;8016;49.928;9.372;2022-12-18T00:20:26;9.10;;;6.60;;
15831;SDS011;8016;49.928;9.372;2022-12-18T00:22:53;11.07;;;8.20;;
15831;SDS011;8016;49.928;9.372;2022-12-18T00:25:19;13.57;;;8.20;;
15831;SDS011;8016;49.928;9.372;2022-12-18T00:27:45;17.40;;;10.47;;
15831;SDS011;8016;49.928;9.372;2022-12-18T00:30:11;20.17;;;10.20;;
15831;SDS011;8016;49.928;9.372;2022-12-18T00:32:37;17.63;;;10.13;;
15831;SDS011;8016;49.928;9.372;2022-12-18T00:35:04;18.50;;;9.60;;
15831;SDS011;8016;49.928;9.372;2022-12-18T00:37:30;12.83;;;8.57;;
15831;SDS011;8016;49.928;9.372;2022-12-18T00:39:56;14.73;;;9.20;;
15831;SDS011;8016;49.928;9.372;2022-12-18T00:42:22;12.97;;;8.37;;
15831;SDS011;8016;49.928;9.372;2022-12-18T00:45:07;11.90;;;9.00;;
15831;SDS011;8016;49.928;9.372;2022-12-18T00:47:33;17.67;;;9.70;;
15831;SDS011;8016;49.928;9.372;2022-12-18T00:49:58;14.30;;;7.97;;
15831;SDS011;8016;49.928;9.372;2022-12-18T00:52:24;13.73;;;8.57;;
15831;SDS011;8016;49.928;9.372;2022-12-18T00:54:50;12.70;;;8.17;;
15831;SDS011;8016;49.928;9.372;2022-12-18T00:57:16;13.17;;;8.20;;
15831;SDS011;8016;49.928;9.372;2022-12-18T00:59:42;11.27;;;7.73;;
15831;SDS011;8016;49.928;9.372;2022-12-18T01:02:08;25.37;;;8.83;;
15831;SDS011;8016;49.928;9.372;2022-12-18T01:04:34;11.70;;;7.87;;
15831;SDS011;8016;49.928;9.372;2022-12-18T01:07:00;11.43;;;8.13;;
15831;SDS011;8016;49.928;9.372;2022-12-18T01:09:26;12.40;;;7.70;;
15831;SDS011;8016;49.928;9.372;2022-12-18T01:11:52;13.83;;;8.73;;
15831;SDS011;8016;49.928;9.372;2022-12-18T01:14:18;16.77;;;7.97;;
15831;SDS011;8016;49.928;9.372;2022-12-18T01:16:44;15.70;;;8.30;;
15831;SDS011;8016;49.928;9.372;2022-12-18T01:19:10;11.73;;;7.70;;
15831;SDS011;8016;49.928;9.372;2022-12-18T01:21:36;11.63;;;8.13;;
15831;SDS011;8016;49.928;9.372;2022-12-18T01:24:02;12.90;;;7.73;;
15831;SDS011;8016;49.928;9.372;2022-12-18T01:26:28;12.83;;;7.73;;
15831;SDS011;8016;49.928;9.372;2022-12-18T01:28:55;12.87;;;7.30;;
15831;SDS011;8016;49.928;9.372;2022-12-18T01:33:47;13.43;;;8.60;;
15831;SDS011;8016;49.928;9.372;2022-12-18T01:36:17;13.40;;;8.10;;
15831;SDS011;8016;49.928;9.372;2022-12-18T01:38:44;13.33;;;7.60;;
15831;SDS011;8016;49.928;9.372;2022-12-18T01:41:10;12.13;;;8.10;;
15831;SDS011;8016;49.928;9.372;2022-12-18T01:43:53;13.00;;;7.63;;
15831;SDS011;8016;49.928;9.372;2022-12-18T01:46:20;12.70;;;7.13;;
15831;SDS011;8016;49.928;9.372;2022-12-18T01:48:47;14.33;;;7.77;;
15831;SDS011;8016;49.928;9.372;2022-12-18T01:51:15;11.97;;;7.50;;
15831;SDS011;8016;49.928;9.372;2022-12-18T01:53:41;16.00;;;8.17;;
15831;SDS011;8016;49.928;9.372;2022-12-18T01:56:08;11.20;;;7.77;;
15831;SDS011;8016;49.928;9.372;2022-12-18T02:01:06;17.60;;;11.10;;
15831;SDS011;8016;49.928;9.372;2022-12-18T02:03:32;16.90;;;10.57;;
15831;SDS011;8016;49.928;9.372;2022-12-18T02:08:33;12.30;;;8.00;;
15831;SDS011;8016;49.928;9.372;2022-12-18T02:11:18;18.13;;;8.43;;
15831;SDS011;8016;49.928;9.372;2022-12-18T02:18:44;13.03;;;8.10;;
15831;SDS011;8016;49.928;9.372;2022-12-18T02:26:47;14.97;;;8.53;;
15831;SDS011;8016;49.928;9.372;2022-12-18T02:29:18;13.37;;;6.90;;
15831;SDS011;8016;49.928;9.372;2022-12-18T02:31:51;10.70;;;7.17;;
15831;SDS011;8016;49.928;9.372;2022-12-18T02:34:18;11.63;;;7.90;;
15831;SDS011;8016;49.928;9.372;2022-12-18T02:36:44;16.23;;;8.93;;
15831;SDS011;8016;49.928;9.372;2022-12-18T02:39:12;13.90;;;9.07;;
15831;SDS011;8016;49.928;9.372;2022-12-18T02:41:39;16.03;;;8.40;;
15831;SDS011;8016;49.928;9.372;2022-12-18T02:44:09;14.30;;;8.80;;
15831;SDS011;8016;49.928;9.372;2022-12-18T02:46:36;15.50;;;8.23;;
15831;SDS011;8016;49.928;9.372;2022-12-18T02:49:10;15.53;;;9.37;;
15831;SDS011;8016;49.928;9.372;2022-12-18T02:51:59;13.20;;;8.50;;
15831;SDS011;8016;49.928;9.372;2022-12-18T02:57:05;13.23;;;8.77;;
15831;SDS011;8016;49.928;9.372;2022-12-18T02:59:38;15.67;;;9.17;;
15831;SDS011;8016;49.928;9.372;2022-12-18T03:04:48;13.70;;;8.30;;
15831;SDS011;8016;49.928;9.372;2022-12-18T03:07:18;13.67;;;8.50;;
15831;SDS011;8016;49.928;9.372;2022-12-18T03:09:47;14.93;;;8.73;;
15831;SDS011;8016;49.928;9.372;2022-12-18T03:12:16;12.87;;;8.67;;
15831;SDS011;8016;49.928;9.372;2022-12-18T03:14:52;13.87;;;8.73;;
15831;SDS011;8016;49.928;9.372;2022-12-18T03:17:20;13.97;;;8.67;;
15831;SDS011;8016;49.928;9.372;2022-12-18T03:19:46;12.63;;;8.27;;
15831;SDS011;8016;49.928;9.372;2022-12-18T03:22:13;16.53;;;9.50;;
15831;SDS011;8016;49.928;9.372;2022-12-18T03:24:39;11.83;;;8.60;;
15831;SDS011;8016;49.928;9.372;2022-12-18T03:27:06;16.33;;;8.67;;
15831;SDS011;8016;49.928;9.372;2022-12-18T03:29:38;17.57;;;9.33;;
15831;SDS011;8016;49.928;9.372;2022-12-18T03:32:28;14.20;;;8.93;;
15831;SDS011;8016;49.928;9.372;2022-12-18T03:34:52;16.43;;;9.27;;
15831;SDS011;8016;49.928;9.372;2022-12-18T03:37:20;13.03;;;8.43;;
15831;SDS011;8016;49.928;9.372;2022-12-18T03:39:46;15.73;;;9.90;;
15831;SDS011;8016;49.928;9.372;2022-12-18T03:42:25;21.20;;;12.87;;
15831;SDS011;8016;49.928;9.372;2022-12-18T03:47:25;18.80;;;10.97;;
15831;SDS011;8016;49.928;9.372;2022-12-18T03:50:01;16.53;;;10.53;;
15831;SDS011;8016;49.928;9.372;2022-12-18T03:52:30;16.63;;;10.23;;
15831;SDS011;8016;49.928;9.372;2022-12-18T03:54:58;15.27;;;9.77;;
15831;SDS011;8016;49.928;9.372;2022-12-18T03:57:26;14.97;;;9.37;;
15831;SDS011;8016;49.928;9.372;2022-12-18T04:00:06;19.13;;;10.87;;
15831;SDS011;8016;49.928;9.372;2022-12-18T04:02:34;22.30;;;11.97;;
15831;SDS011;8016;49.928;9.372;2022-12-18T04:05:02;23.40;;;12.87;;
15831;SDS011;8016;49.928;9.372;2022-12-18T04:07:30;34.17;;;17.70;;
15831;SDS011;8016;49.928;9.372;2022-12-18T04:09:56;30.97;;;15.23;;
15831;SDS011;8016;49.928;9.372;2022-12-18T04:12:24;24.83;;;13.50;;
15831;SDS011;8016;49.928;9.372;2022-12-18T04:14:51;23.47;;;13.57;;
15831;SDS011;8016;49.928;9.372;2022-12-18T04:17:17;25.40;;;13.70;;
15831;SDS011;8016;49.928;9.372;2022-12-18T04:19:43;20.27;;;12.80;;
15831;SDS011;8016;49.928;9.372;2022-12-18T04:22:10;22.87;;;13.83;;
15831;SDS011;8016;49.928;9.372;2022-12-18T04:24:36;21.00;;;12.47;;
15831;SDS011;8016;49.928;9.372;2022-12-18T04:27:02;22.67;;;12.67;;
15831;SDS011;8016;49.928;9.372;2022-12-18T04:29:28;19.97;;;11.50;;
15831;SDS011;8016;49.928;9.372;2022-12-18T04:31:55;16.83;;;10.33;;
15831;SDS011;8016;49.928;9.372;2022-12-18T04:34:21;15.53;;;11.00;;
15831;SDS011;8016;49.928;9.372;2022-12-18T04:36:47;19.13;;;11.43;;
15831;SDS011;8016;49.928;9.372;2022-12-18T04:39:13;20.73;;;11.43;;
15831;SDS011;8016;49.928;9.372;2022-12-18T04:41:39;17.77;;;11.20;;
15831;SDS011;8016;49.928;9.372;2022-12-18T04:44:06;16.07;;;10.40;;
15831;SDS011;8016;49.928;9.372;2022-12-18T04:46:32;16.17;;;10.67;;
15831;SDS011;8016;49.928;9.372;2022-12-18T04:48:58;15.67;;;10.70;;
15831;SDS011;8016;49.928;9.372;2022-12-18T04:51:24;20.77;;;12.50;;
15831;SDS011;8016;49.928;9.372;2022-12-18T04:53:50;16.47;;;9.37;;
15831;SDS011;8016;49.928;9.372;2022-12-18T04:56:16;16.93;;;9.93;;
15831;SDS011;8016;49.928;9.372;2022-12-18T04:58:42;15.90;;;10.83;;
15831;SDS011;8016;49.928;9.372;2022-12-18T05:01:09;21.70;;;13.57;;
15831;SDS011;8016;49.928;9.372;2022-12-18T05:03:36;23.80;;;14.07;;
15831;SDS011;8016;49.928;9.372;2022-12-18T05:06:02;23.73;;;12.53;;
15831;SDS011;8016;49.928;9.372;2022-12-18T05:08:28;24.47;;;15.53;;
15831;SDS011;8016;49.928;9.372;2022-12-18T05:10:58;30.63;;;16.10;;
15831;SDS011;8016;49.928;9.372;2022-12-18T05:13:24;36.00;;;20.00;;
15831;SDS011;8016;49.928;9.372;2022-12-18T05:15:53;32.23;;;18.63;;
15831;SDS011;8016;49.928;9.372;2022-12-18T05:18:20;28.57;;;18.13;;
15831;SDS011;8016;49.928;9.372;2022-12-18T05:20:46;26.33;;;16.00;;
15831;SDS011;8016;49.928;9.372;2022-12-18T05:23:12;25.97;;;16.67;;
15831;SDS011;8016;49.928;9.372;2022-12-18T05:25:38;33.10;;;17.17;;
15831;SDS011;8016;49.928;9.372;2022-12-18T05:28:04;34.50;;;18.63;;
15831;SDS011;8016;49.928;9.372;2022-12-18T05:30:30;30.10;;;17.27;;
15831;SDS011;8016;49.928;9.372;2022-12-18T05:32:56;28.07;;;16.27;;
15831;SDS011;8016;49.928;9.372;2022-12-18T05:35:22;30.50;;;17.80;;
15831;SDS011;8016;49.928;9.372;2022-12-18T05:37:48;26.57;;;16.53;;
15831;SDS011;8016;49.928;9.372;2022-12-18T05:40:13;26.00;;;16.23;;
15831;SDS011;8016;49.928;9.372;2022-12-18T05:42:39;27.83;;;16.63;;
15831;SDS011;8016;49.928;9.372;2022-12-18T05:45:05;29.57;;;17.63;;
15831;SDS011;8016;49.928;9.372;2022-12-18T05:47:32;29.37;;;17.20;;
15831;SDS011;8016;49.928;9.372;2022-12-18T05:49:58;28.93;;;16.17;;
15831;SDS011;8016;49.928;9.372;2022-12-18T05:52:24;31.67;;;18.30;;
15831;SDS011;8016;49.928;9.372;2022-12-18T05:54:50;34.23;;;18.97;;
15831;SDS011;8016;49.928;9.372;2022-12-18T05:57:16;30.00;;;17.73;;
15831;SDS011;8016;49.928;9.372;2022-12-18T05:59:42;32.73;;;18.57;;
15831;SDS011;8016;49.928;9.372;2022-12-18T06:02:07;33.27;;;19.97;;
15831;SDS011;8016;49.928;9.372;2022-12-18T06:04:33;32.47;;;18.10;;
15831;SDS011;8016;49.928;9.372;2022-12-18T06:06:59;36.13;;;20.40;;
15831;SDS011;8016;49.928;9.372;2022-12-18T06:09:25;32.17;;;20.63;;
15831;SDS011;8016;49.928;9.372;2022-12-18T06:11:51;37.43;;;21.17;;
15831;SDS011;8016;49.928;9.372;2022-12-18T06:14:18;36.43;;;20.50;;
15831;SDS011;8016;49.928;9.372;2022-12-18T06:16:44;37.07;;;22.03;;
15831;SDS011;8016;49.928;9.372;2022-12-18T06:19:12;36.07;;;21.23;;
15831;SDS011;8016;49.928;9.372;2022-12-18T06:21:39;55.47;;;28.97;;
15831;SDS011;8016;49.928;9.372;2022-12-18T06:24:05;42.07;;;23.73;;
15831;SDS011;8016;49.928;9.372;2022-12-18T06:26:31;34.97;;;21.90;;
15831;SDS011;8016;49.928;9.372;2022-12-18T06:28:57;38.87;;;24.03;;
15831;SDS011;8016;49.928;9.372;2022-12-18T06:31:23;40.03;;;22.73;;
15831;SDS011;8016;49.928;9.372;2022-12-18T06:33:49;42.40;;;25.07;;
15831;SDS011;8016;49.928;9.372;2022-12-18T06:36:15;39.53;;;24.53;;
15831;SDS011;8016;49.928;9.372;2022-12-18T06:38:42;39.93;;;24.97;;
15831;SDS011;8016;49.928;9.372;2022-12-18T06:41:09;42.13;;;24.27;;
15831;SDS011;8016;49.928;9.372;2022-12-18T06:43:35;39.87;;;23.87;;
15831;SDS011;8016;49.928;9.372;2022-12-18T06:46:02;44.17;;;25.10;;
15831;SDS011;8016;49.928;9.372;2022-12-18T06:48:29;45.97;;;26.33;;
15831;SDS011;8016;49.928;9.372;2022-12-18T06:50:55;42.23;;;24.10;;
15831;SDS011;8016;49.928;9.372;2022-12-18T06:53:21;47.67;;;27.13;;
15831;SDS011;8016;49.928;9.372;2022-12-18T06:55:48;45.23;;;28.07;;
15831;SDS011;8016;49.928;9.372;2022-12-18T06:58:14;43.63;;;24.70;;
15831;SDS011;8016;49.928;9.372;2022-12-18T07:00:40;46.67;;;27.33;;
15831;SDS011;8016;49.928;9.372;2022-12-18T07:03:06;41.13;;;25.30;;
15831;SDS011;8016;49.928;9.372;2022-12-18T07:05:32;49.13;;;28.00;;
15831;SDS011;8016;49.928;9.372;2022-12-18T07:07:58;48.00;;;27.27;;
15831;SDS011;8016;49.928;9.372;2022-12-18T07:10:24;49.07;;;28.17;;
15831;SDS011;8016;49.928;9.372;2022-12-18T07:12:51;45.70;;;25.47;;
15831;SDS011;8016;49.928;9.372;2022-12-18T07:15:17;59.60;;;31.93;;
15831;SDS011;8016;49.928;9.372;2022-12-18T07:17:44;47.70;;;26.33;;
15831;SDS011;8016;49.928;9.372;2022-12-18T07:20:10;44.70;;;26.20;;
15831;SDS011;8016;49.928;9.372;2022-12-18T07:22:36;49.40;;;26.40;;
15831;SDS011;8016;49.928;9.372;2022-12-18T07:25:02;42.33;;;25.77;;
15831;SDS011;8016;49.928;9.372;2022-12-18T07:27:28;48.90;;;26.30;;
15831;SDS011;8016;49.928;9.372;2022-12-18T07:29:55;45.10;;;27.77;;
15831;SDS011;8016;49.928;9.372;2022-12-18T07:32:22;39.57;;;26.03;;
15831;SDS011;8016;49.928;9.372;2022-12-18T07:34:48;43.87;;;26.90;;
15831;SDS011;8016;49.928;9.372;2022-12-18T07:37:14;46.37;;;26.23;;
15831;SDS011;8016;49.928;9.372;2022-12-18T07:39:39;39.57;;;24.70;;
15831;SDS011;8016;49.928;9.372;2022-12-18T07:42:06;39.57;;;24.80;;
15831;SDS011;8016;49.928;9.372;2022-12-18T07:44:50;43.50;;;25.37;;
15831;SDS011;8016;49.928;9.372;2022-12-18T07:47:16;42.37;;;24.73;;
15831;SDS011;8016;49.928;9.372;2022-12-18T07:49:42;39.73;;;23.27;;
15831;SDS011;8016;49.928;9.372;2022-12-18T07:52:08;41.53;;;24.77;;
15831;SDS011;8016;49.928;9.372;2022-12-18T07:54:34;41.70;;;24.00;;
15831;SDS011;8016;49.928;9.372;2022-12-18T07:57:00;54.53;;;32.70;;
15831;SDS011;8016;49.928;9.372;2022-12-18T07:59:26;41.37;;;25.97;;
15831;SDS011;8016;49.928;9.372;2022-12-18T08:01:55;39.17;;;24.03;;
15831;SDS011;8016;49.928;9.372;2022-12-18T08:04:21;39.87;;;24.40;;
15831;SDS011;8016;49.928;9.372;2022-12-18T08:06:47;35.63;;;22.07;;
15831;SDS011;8016;49.928;9.372;2022-12-18T08:09:13;35.90;;;23.63;;
15831;SDS011;8016;49.928;9.372;2022-12-18T08:11:39;42.73;;;26.17;;
15831;SDS011;8016;49.928;9.372;2022-12-18T08:14:05;41.20;;;22.70;;
15831;SDS011;8016;49.928;9.372;2022-12-18T08:16:31;42.17;;;24.70;;
15831;SDS011;8016;49.928;9.372;2022-12-18T08:18:57;41.80;;;24.17;;
15831;SDS011;8016;49.928;9.372;2022-12-18T08:21:24;37.00;;;23.10;;
15831;SDS011;8016;49.928;9.372;2022-12-18T08:23:51;37.93;;;21.73;;
15831;SDS011;8016;49.928;9.372;2022-12-18T08:26:18;40.43;;;24.03;;
15831;SDS011;8016;49.928;9.372;2022-12-18T08:28:44;39.30;;;23.77;;
15831;SDS011;8016;49.928;9.372;2022-12-18T08:31:10;38.50;;;23.33;;
15831;SDS011;8016;49.928;9.372;2022-12-18T08:33:36;36.67;;;21.67;;
15831;SDS011;8016;49.928;9.372;2022-12-18T08:36:03;39.97;;;24.23;;
15831;SDS011;8016;49.928;9.372;2022-12-18T08:38:30;38.47;;;22.90;;
15831;SDS011;8016;49.928;9.372;2022-12-18T08:41:00;41.97;;;24.20;;
15831;SDS011;8016;49.928;9.372;2022-12-18T08:43:26;36.30;;;23.20;;
15831;SDS011;8016;49.928;9.372;2022-12-18T08:46:11;39.40;;;22.83;;
15831;SDS011;8016;49.928;9.372;2022-12-18T08:48:40;39.90;;;22.07;;
15831;SDS011;8016;49.928;9.372;2022-12-18T08:51:06;35.50;;;22.30;;
15831;SDS011;8016;49.928;9.372;2022-12-18T08:53:34;45.33;;;27.17;;
15831;SDS011;8016;49.928;9.372;2022-12-18T08:56:00;58.53;;;34.03;;
15831;SDS011;8016;49.928;9.372;2022-12-18T08:58:26;43.03;;;22.93;;
15831;SDS011;8016;49.928;9.372;2022-12-18T09:00:52;38.53;;;21.80;;
15831;SDS011;8016;49.928;9.372;2022-12-18T09:03:18;41.83;;;22.90;;
15831;SDS011;8016;49.928;9.372;2022-12-18T09:05:47;51.47;;;30.20;;
15831;SDS011;8016;49.928;9.372;2022-12-18T09:08:13;43.07;;;25.43;;
15831;SDS011;8016;49.928;9.372;2022-12-18T09:10:48;38.83;;;20.43;;
15831;SDS011;8016;49.928;9.372;2022-12-18T09:13:14;39.17;;;21.03;;
15831;SDS011;8016;49.928;9.372;2022-12-18T09:15:41;39.37;;;21.20;;
15831;SDS011;8016;49.928;9.372;2022-12-18T09:18:07;35.43;;;19.97;;
15831;SDS011;8016;49.928;9.372;2022-12-18T09:20:34;45.47;;;25.23;;
15831;SDS011;8016;49.928;9.372;2022-12-18T09:23:00;42.60;;;21.90;;
15831;SDS011;8016;49.928;9.372;2022-12-18T09:25:26;38.17;;;20.97;;
15831;SDS011;8016;49.928;9.372;2022-12-18T09:27:56;43.17;;;21.17;;
15831;SDS011;8016;49.928;9.372;2022-12-18T09:30:22;42.67;;;22.63;;
15831;SDS011;8016;49.928;9.372;2022-12-18T09:32:48;44.47;;;22.13;;
15831;SDS011;8016;49.928;9.372;2022-12-18T09:35:14;44.90;;;24.10;;
15831;SDS011;8016;49.928;9.372;2022-12-18T09:37:40;41.27;;;23.40;;
15831;SDS011;8016;49.928;9.372;2022-12-18T09:40:12;43.00;;;22.53;;
15831;SDS011;8016;49.928;9.372;2022-12-18T09:42:38;43.63;;;24.67;;
15831;SDS011;8016;49.928;9.372;2022-12-18T09:45:04;43.87;;;22.47;;
15831;SDS011;8016;49.928;9.372;2022-12-18T09:47:33;47.53;;;24.83;;
15831;SDS011;8016;49.928;9.372;2022-12-18T09:50:01;44.03;;;22.87;;
15831;SDS011;8016;49.928;9.372;2022-12-18T09:52:30;40.23;;;22.93;;
15831;SDS011;8016;49.928;9.372;2022-12-18T09:55:00;41.60;;;21.63;;
15831;SDS011;8016;49.928;9.372;2022-12-18T09:57:28;38.53;;;23.17;;
15831;SDS011;8016;49.928;9.372;2022-12-18T10:00:02;46.03;;;22.97;;
15831;SDS011;8016;49.928;9.372;2022-12-18T10:02:29;42.37;;;21.87;;
15831;SDS011;8016;49.928;9.372;2022-12-18T10:07:24;48.07;;;23.87;;
15831;SDS011;8016;49.928;9.372;2022-12-18T10:10:07;40.37;;;21.30;;
15831;SDS011;8016;49.928;9.372;2022-12-18T10:12:40;45.93;;;24.77;;
15831;SDS011;8016;49.928;9.372;2022-12-18T10:19:59;44.33;;;22.40;;
15831;SDS011;8016;49.928;9.372;2022-12-18T10:25:22;49.63;;;25.00;;
15831;SDS011;8016;49.928;9.372;2022-12-18T10:27:51;48.50;;;26.00;;
15831;SDS011;8016;49.928;9.372;2022-12-18T10:30:20;47.73;;;27.03;;
15831;SDS011;8016;49.928;9.372;2022-12-18T10:32:46;44.37;;;23.17;;
15831;SDS011;8016;49.928;9.372;2022-12-18T10:35:17;47.80;;;24.03;;
15831;SDS011;8016;49.928;9.372;2022-12-18T10:40:25;46.87;;;25.00;;
15831;SDS011;8016;49.928;9.372;2022-12-18T10:43:05;47.40;;;23.33;;
15831;SDS011;8016;49.928;9.372;2022-12-18T10:45:31;38.87;;;22.07;;
15831;SDS011;8016;49.928;9.372;2022-12-18T10:47:57;47.23;;;22.70;;
15831;SDS011;8016;49.928;9.372;2022-12-18T10:50:26;44.47;;;24.40;;
15831;SDS011;8016;49.928;9.372;2022-12-18T10:52:55;44.70;;;23.20;;
15831;SDS011;8016;49.928;9.372;2022-12-18T10:55:22;48.67;;;22.37;;
15831;SDS011;8016;49.928;9.372;2022-12-18T10:57:50;43.30;;;23.40;;
15831;SDS011;8016;49.928;9.372;2022-12-18T11:00:20;43.33;;;21.83;;
15831;SDS011;8016;49.928;9.372;2022-12-18T11:02:47;41.63;;;23.53;;
15831;SDS011;8016;49.928;9.372;2022-12-18T11:05:33;40.33;;;21.53;;
15831;SDS011;8016;49.928;9.372;2022-12-18T11:08:01;42.13;;;22.13;;
15831;SDS011;8016;49.928;9.372;2022-12-18T11:10:30;44.30;;;24.90;;
15831;SDS011;8016;49.928;9.372;2022-12-18T11:13:08;42.27;;;22.40;;
15831;SDS011;8016;49.928;9.372;2022-12-18T11:15:34;47.90;;;31.02;;
15831;SDS011;8016;49.928;9.372;2022-12-18T11:18:00;41.27;;;25.47;;
15831;SDS011;8016;49.928;9.372;2022-12-18T11:20:31;46.80;;;23.87;;
15831;SDS011;8016;49.928;9.372;2022-12-18T11:22:59;45.13;;;22.07;;
15831;SDS011;8016;49.928;9.372;2022-12-18T11:25:25;40.67;;;22.37;;
15831;SDS011;8016;49.928;9.372;2022-12-18T11:27:52;41.83;;;22.97;;
15831;SDS011;8016;49.928;9.372;2022-12-18T11:33:08;41.50;;;23.53;;
15831;SDS011;8016;49.928;9.372;2022-12-18T11:38:23;42.60;;;22.43;;
15831;SDS011;8016;49.928;9.372;2022-12-18T11:40:52;40.83;;;22.53;;
15831;SDS011;8016;49.928;9.372;2022-12-18T11:43:25;37.17;;;22.30;;
15831;SDS011;8016;49.928;9.372;2022-12-18T11:45:53;39.63;;;21.23;;
15831;SDS011;8016;49.928;9.372;2022-12-18T11:51:18;38.83;;;21.80;;
15831;SDS011;8016;49.928;9.372;2022-12-18T11:53:46;44.83;;;23.17;;
15831;SDS011;8016;49.928;9.372;2022-12-18T11:56:19;42.77;;;22.17;;
15831;SDS011;8016;49.928;9.372;2022-12-18T12:08:59;43.60;;;23.40;;
15831;SDS011;8016;49.928;9.372;2022-12-18T12:16:58;38.03;;;21.80;;
15831;SDS011;8016;49.928;9.372;2022-12-18T12:27:39;37.17;;;20.73;;
15831;SDS011;8016;49.928;9.372;2022-12-18T12:37:34;40.00;;;22.97;;
15831;SDS011;8016;49.928;9.372;2022-12-18T12:40:04;38.50;;;21.67;;
15831;SDS011;8016;49.928;9.372;2022-12-18T12:42:32;39.43;;;21.40;;
15831;SDS011;8016;49.928;9.372;2022-12-18T12:45:36;37.70;;;22.07;;
15831;SDS011;8016;49.928;9.372;2022-12-18T12:48:02;39.17;;;21.83;;
15831;SDS011;8016;49.928;9.372;2022-12-18T12:50:30;34.87;;;21.33;;
15831;SDS011;8016;49.928;9.372;2022-12-18T12:52:59;37.10;;;22.47;;
15831;SDS011;8016;49.928;9.372;2022-12-18T12:55:27;40.97;;;22.10;;
15831;SDS011;8016;49.928;9.372;2022-12-18T12:57:59;41.67;;;24.23;;
15831;SDS011;8016;49.928;9.372;2022-12-18T13:00:27;38.90;;;21.63;;
15831;SDS011;8016;49.928;9.372;2022-12-18T13:03:01;38.13;;;21.80;;
15831;SDS011;8016;49.928;9.372;2022-12-18T13:08:24;38.90;;;22.33;;
15831;SDS011;8016;49.928;9.372;2022-12-18T13:10:51;35.57;;;22.87;;
15831;SDS011;8016;49.928;9.372;2022-12-18T13:13:50;37.40;;;20.53;;
15831;SDS011;8016;49.928;9.372;2022-12-18T13:16:21;40.47;;;21.63;;
15831;SDS011;8016;49.928;9.372;2022-12-18T13:18:54;40.17;;;22.50;;
15831;SDS011;8016;49.928;9.372;2022-12-18T13:21:27;41.03;;;22.13;;
15831;SDS011;8016;49.928;9.372;2022-12-18T13:23:54;39.27;;;21.97;;
15831;SDS011;8016;49.928;9.372;2022-12-18T13:28:53;41.40;;;24.13;;
15831;SDS011;8016;49.928;9.372;2022-12-18T13:34:12;38.23;;;20.77;;
15831;SDS011;8016;49.928;9.372;2022-12-18T13:36:39;36.17;;;21.43;;
15831;SDS011;8016;49.928;9.372;2022-12-18T13:41:37;39.00;;;22.47;;
15831;SDS011;8016;49.928;9.372;2022-12-18T13:44:10;38.07;;;21.73;;
15831;SDS011;8016;49.928;9.372;2022-12-18T13:46:44;37.70;;;22.07;;
15831;SDS011;8016;49.928;9.372;2022-12-18T13:51:41;38.23;;;22.27;;
15831;SDS011;8016;49.928;9.372;2022-12-18T13:56:43;41.47;;;22.60;;
15831;SDS011;8016;49.928;9.372;2022-12-18T14:01:54;37.93;;;20.63;;
15831;SDS011;8016;49.928;9.372;2022-12-18T14:04:44;35.40;;;20.33;;
15831;SDS011;8016;49.928;9.372;2022-12-18T14:07:20;45.23;;;23.27;;
15831;SDS011;8016;49.928;9.372;2022-12-18T14:09:49;39.40;;;23.50;;
15831;SDS011;8016;49.928;9.372;2022-12-18T14:12:17;37.93;;;23.07;;
15831;SDS011;8016;49.928;9.372;2022-12-18T14:15:03;33.67;;;21.40;;
15831;SDS011;8016;49.928;9.372;2022-12-18T14:17:30;37.97;;;21.93;;
15831;SDS011;8016;49.928;9.372;2022-12-18T14:19:56;37.70;;;21.80;;
15831;SDS011;8016;49.928;9.372;2022-12-18T14:22:24;37.70;;;22.13;;
15831;SDS011;8016;49.928;9.372;2022-12-18T14:25:14;38.60;;;21.47;;
15831;SDS011;8016;49.928;9.372;2022-12-18T14:27:45;38.43;;;22.73;;
15831;SDS011;8016;49.928;9.372;2022-12-18T14:35:27;40.00;;;22.60;;
15831;SDS011;8016;49.928;9.372;2022-12-18T14:37:53;40.93;;;22.07;;
15831;SDS011;8016;49.928;9.372;2022-12-18T14:40:19;33.57;;;21.03;;
15831;SDS011;8016;49.928;9.372;2022-12-18T14:42:45;34.80;;;21.20;;
15831;SDS011;8016;49.928;9.372;2022-12-18T14:48:17;41.43;;;21.97;;
15831;SDS011;8016;49.928;9.372;2022-12-18T14:50:43;37.70;;;21.33;;
15831;SDS011;8016;49.928;9.372;2022-12-18T14:55:54;33.93;;;20.93;;
15831;SDS011;8016;49.928;9.372;2022-12-18T14:58:20;42.00;;;22.70;;
15831;SDS011;8016;49.928;9.372;2022-12-18T15:00:47;38.47;;;22.17;;
15831;SDS011;8016;49.928;9.372;2022-12-18T15:03:15;36.70;;;21.70;;
15831;SDS011;8016;49.928;9.372;2022-12-18T15:05:44;35.40;;;21.30;;
15831;SDS011;8016;49.928;9.372;2022-12-18T15:08:29;36.17;;;21.37;;
15831;SDS011;8016;49.928;9.372;2022-12-18T15:10:55;35.40;;;21.37;;
15831;SDS011;8016;49.928;9.372;2022-12-18T15:13:22;38.40;;;21.43;;
15831;SDS011;8016;49.928;9.372;2022-12-18T15:15:49;39.30;;;22.20;;
15831;SDS011;8016;49.928;9.372;2022-12-18T15:18:16;36.97;;;20.50;;
15831;SDS011;8016;49.928;9.372;2022-12-18T15:25:45;36.90;;;20.47;;
15831;SDS011;8016;49.928;9.372;2022-12-18T15:28:35;37.80;;;21.07;;
15831;SDS011;8016;49.928;9.372;2022-12-18T15:31:40;35.63;;;20.90;;
15831;SDS011;8016;49.928;9.372;2022-12-18T15:36:17;37.57;;;20.43;;
15831;SDS011;8016;49.928;9.372;2022-12-18T15:38:47;34.70;;;19.97;;
15831;SDS011;8016;49.928;9.372;2022-12-18T15:41:14;36.50;;;22.40;;
15831;SDS011;8016;49.928;9.372;2022-12-18T15:43:40;38.57;;;22.30;;
15831;SDS011;8016;49.928;9.372;2022-12-18T15:46:08;37.73;;;23.73;;
15831;SDS011;8016;49.928;9.372;2022-12-18T15:48:35;34.70;;;21.13;;
15831;SDS011;8016;49.928;9.372;2022-12-18T15:51:04;35.07;;;20.10;;
15831;SDS011;8016;49.928;9.372;2022-12-18T15:53:31;37.90;;;21.20;;
15831;SDS011;8016;49.928;9.372;2022-12-18T15:55:58;36.40;;;22.00;;
15831;SDS011;8016;49.928;9.372;2022-12-18T15:58:43;41.83;;;24.30;;
15831;SDS011;8016;49.928;9.372;2022-12-18T16:01:09;42.17;;;23.33;;
15831;SDS011;8016;49.928;9.372;2022-12-18T16:03:36;49.10;;;28.87;;
15831;SDS011;8016;49.928;9.372;2022-12-18T16:06:02;40.97;;;23.57;;
15831;SDS011;8016;49.928;9.372;2022-12-18T16:08:29;43.33;;;24.63;;
15831;SDS011;8016;49.928;9.372;2022-12-18T16:10:55;40.20;;;24.37;;
15831;SDS011;8016;49.928;9.372;2022-12-18T16:13:21;39.73;;;24.60;;
15831;SDS011;8016;49.928;9.372;2022-12-18T16:15:47;38.00;;;21.53;;
15831;SDS011;8016;49.928;9.372;2022-12-18T16:18:13;37.23;;;22.43;;
15831;SDS011;8016;49.928;9.372;2022-12-18T16:20:39;36.70;;;23.70;;
15831;SDS011;8016;49.928;9.372;2022-12-18T16:23:05;35.23;;;22.40;;
15831;SDS011;8016;49.928;9.372;2022-12-18T16:25:31;37.30;;;23.10;;
15831;SDS011;8016;49.928;9.372;2022-12-18T16:27:57;38.17;;;21.43;;
15831;SDS011;8016;49.928;9.372;2022-12-18T16:30:24;40.33;;;20.97;;
15831;SDS011;8016;49.928;9.372;2022-12-18T16:32:52;38.47;;;21.83;;
15831;SDS011;8016;49.928;9.372;2022-12-18T16:35:18;37.67;;;21.53;;
15831;SDS011;8016;49.928;9.372;2022-12-18T16:37:44;38.07;;;20.70;;
15831;SDS011;8016;49.928;9.372;2022-12-18T16:40:11;51.50;;;30.80;;